Latest Coastal Weather Observations for Mackay

IDQ60701

Issued at 12:25 am EST Wednesday 3 September 2014 (issued every 10 minutes, with the page automatically refreshed every 10 minutes)

About coastal observations | Map of coastal stations | Coastal observations for QLD | Marine services | Other Formats
Station Details ID: 033119 Name: MACKAY M.O Lat: -21.12 Lon: 149.22 Height: 30.26 m
Data from the previous 72 hours. | See also: Recent months at Mackay
Date/Time
EST
Temp

°C
Wind Pressure Rain
since 9am
mm
Weather Cloud Vis
km
Sea
Height
m
Swell
Dir
 
Speed
knots
Gust
knots
hPa Trend Height
m
Period
s
Dir
03/12:00am 18.4 NW 7 10 1014.4 - 0.2 - - - - - - -
 
Date/Time
EST
Temp

°C
Wind Pressure Rain
since 9am
mm
Weather Cloud Vis
km
Sea
Height
m
Swell
Dir
 
Speed
knots
Gust
knots
hPa Trend Height
m
Period
s
Dir
02/11:30pm 18.6 NW 7 11 1014.3 - 0.2 - - - - - - -
02/11:00pm 18.9 WNW 7 9 1014.3 - 0.2 - - - - - - -
02/10:30pm 19.1 NW 6 9 1014.3 - 0.2 - - - - - - -
02/10:00pm 19.6 NNW 6 9 1013.9 - 0.2 - - - - - - -
02/09:30pm 20.1 NNW 9 13 1013.8 - 0.2 - - - - - - -
02/09:00pm 20.5 N 10 15 1013.8 F 0.2 - - - - - - -
02/08:30pm 20.6 N 10 15 1013.5 - 0.2 - - - - - - -
02/08:00pm 20.1 N 8 14 1013.7 - 0.2 - - - - - - -
02/07:30pm 20.1 NNW 8 12 1013.6 - 0.2 - - - - - - -
02/07:00pm 20.7 N 8 13 1013.2 - 0.2 - - - - - - -
02/06:30pm 20.8 N 8 13 1013.1 - 0.2 - - - - - - -
02/06:00pm 21.1 N 9 15 1012.8 F 0.2 - - - - - - -
02/05:30pm 21.6 N 11 18 1012.6 - 0.2 - - - - - - -
02/05:00pm 22.4 N 10 16 1012.5 - 0.2 - - 10 - - - -
02/04:30pm 23.4 N 9 15 1012.3 - 0.2 - - 10 - - - -
02/04:00pm 24.0 N 9 14 1012.3 - 0.2 - - 10 - - - -
02/03:30pm 24.3 N 10 16 1012.3 - 0.2 - - 10 - - - -
02/03:00pm 24.8 N 10 15 1012.4 F 0.0 Fine Clear 30 - - - -
02/02:30pm 25.4 N 10 16 1012.8 - 0.0 - - 10 - - - -
02/02:00pm 25.5 N 10 15 1013.4 - 0.0 - - 10 - - - -
02/01:30pm 25.6 N 10 16 1014.0 - 0.0 - - 10 - - - -
02/01:00pm 26.6 N 9 15 1014.5 - 0.0 - - - - - - -
02/12:30pm 26.9 N 9 13 1015.0 - 0.0 - - - - - - -
02/12:00pm 26.2 N 9 14 1015.5 F 0.0 - - - - - - -
02/11:30am 25.5 N 9 13 1016.1 - 0.0 - - - - - - -
02/11:00am 26.0 N 11 14 1016.5 - 0.0 - - - - - - -
02/10:30am 23.7 NNW 9 13 1017.1 - 0.0 - - - - - - -
02/10:00am 23.4 NNW 8 13 1017.6 - 0.0 - - - - - - -
02/09:30am 22.8 NW 5 9 1017.8 - 0.0 - Mostly clear 10 - - - -
02/09:00am 19.7 WSW 5 6 1018.3 F 0.0 Fine Mostly clear 30 - - - -
02/08:30am 18.2 SW 4 6 1018.3 - 0.0 - Mostly clear 10 - - - -
02/08:00am 16.4 SW 5 7 1017.9 - 0.0 - Mostly clear 10 - - - -
02/07:30am 14.8 WSW 7 9 1017.6 - 0.0 - Mostly clear 10 - - - -
02/07:00am 13.7 WSW 6 8 1017.6 - 0.0 - Mostly clear 10 - - - -
02/06:30am 12.9 WSW 7 8 1017.6 - 0.0 - Mostly clear 10 - - - -
02/06:00am 12.7 WSW 7 8 1017.4 F 0.0 Haze Mostly clear 25 - - - -
02/05:30am 12.7 WSW 7 8 1017.2 - 0.0 - - - - - - -
02/05:00am 13.2 WSW 7 8 1017.2 - 0.0 - - - - - - -
02/04:30am 13.7 WSW 7 8 1017.0 - 0.0 - Partly cloudy - - - - -
02/04:00am 13.5 WSW 7 8 1017.1 - 0.0 - - - - - - -
02/03:30am 13.9 WSW 7 9 1016.9 - 0.0 - - - - - - -
02/03:00am 13.8 WSW 7 9 1017.5 - 0.0 - - - - - - -
02/02:30am 13.7 SW 7 8 1017.8 - 0.0 - - - - - - -
02/02:00am 14.3 WSW 6 8 1017.4 - 0.0 - - - - - - -
02/01:30am 14.6 WSW 6 8 1017.7 - 0.0 - - - - - - -
02/01:00am 14.9 WSW 6 8 1018.0 - 0.0 - - - - - - -
02/12:30am 14.9 WSW 7 9 1018.4 - 0.0 - - - - - - -
02/12:00am 15.5 WSW 6 8 1018.0 - 0.0 - - - - - - -
 
Date/Time
EST
Temp

°C
Wind Pressure Rain
since 9am
mm
Weather Cloud Vis
km
Sea
Height
m
Swell
Dir
 
Speed
knots
Gust
knots
hPa Trend Height
m
Period
s
Dir
01/11:30pm 15.9 WSW 6 7 1018.0 - 0.0 - - - - - - -
01/11:00pm 16.0 WSW 5 6 1018.0 - 0.0 - - - - - - -
01/10:30pm 15.7 SW 6 7 1018.5 - 0.0 - - - - - - -
01/10:00pm 16.0 SW 6 6 1018.1 - 0.0 - - - - - - -
01/09:30pm 16.3 WSW 6 7 1018.1 - 0.0 - - - - - - -
01/09:00pm 17.1 WNW 3 6 1018.1 F 0.0 - - - - - - -
01/08:30pm 18.2 N 2 4 1018.1 - 0.0 - - - - - - -
01/08:00pm 18.2 NE 4 6 1017.9 - 0.0 - - - - - - -
01/07:30pm 18.5 NE 4 5 1017.6 - 0.0 - - - - - - -
01/07:00pm 18.7 NE 4 6 1017.4 - 0.0 - - - - - - -
01/06:30pm 18.8 NE 4 6 1017.1 - 0.0 - - - - - - -
01/06:00pm 18.8 NE 4 6 1016.8 F 0.0 - - - - - - -
01/05:30pm 19.9 ENE 4 7 1016.8 - 0.0 - - - - - - -
01/05:00pm 21.1 NE 5 8 1016.2 - 0.0 - - - - - - -
01/04:30pm 21.7 NE 5 9 1016.3 - 0.0 - - - - - - -
01/04:00pm 21.9 ENE 7 10 1016.2 - 0.0 - - - - - - -
01/03:30pm 21.2 E 6 8 1016.5 - 0.0 - - - - - - -
01/03:00pm 21.6 E 6 9 1016.5 F 0.0 - - - - - - -
01/02:30pm 21.3 E 6 9 1016.7 - 0.0 - - - - - - -
01/02:00pm 21.2 E 6 8 1017.2 - 0.0 - Mostly clear 10 - - - -
01/01:30pm 21.9 ESE 5 7 1017.5 - 0.0 - Mostly clear 10 - - - -
01/01:00pm 21.5 E 5 8 1018.0 - 0.0 - Mostly clear 10 - - - -
01/12:30pm 21.9 SE 5 9 1018.4 - 0.0 - Mostly clear 10 - - - -
01/12:00pm 22.1 SE 5 8 1019.0 S 0.0 Haze Mostly clear 25 - - - -
01/11:30am 21.5 SE 6 8 1019.3 - 0.0 - Mostly clear 10 - - - -
01/11:00am 21.6 SE 5 7 1019.0 - 0.0 - Mostly clear 10 - - - -
01/10:30am 21.0 ESE 5 7 1019.5 - 0.0 - Mostly clear 10 - - - -
01/10:00am 21.4 ESE 4 7 1019.8 - 0.0 - Mostly clear 10 - - - -
01/09:30am 20.5 SSW 5 7 1020.0 - 0.0 - Mostly clear 10 - - - -
01/09:00am 19.3 SW 6 8 1020.0 R 0.0 Haze Mostly clear 20 - - - -
01/08:30am 17.4 SW 6 8 1019.6 - 0.0 - Mostly clear 10 - - - -
01/08:00am 15.8 SW 7 9 1019.4 - 0.0 - Mostly clear 10 - - - -
01/07:30am 14.2 SW 7 10 1019.0 - 0.0 - Mostly clear 10 - - - -
01/07:00am 12.8 WSW 8 11 1018.7 - 0.0 - Mostly clear 10 - - - -
01/06:30am 12.1 SW 9 11 1018.3 - 0.0 - Mostly clear 10 - - - -
01/06:00am 12.0 SW 7 9 1017.9 F 0.0 Haze Mostly clear 20 - - - -
01/05:30am 12.4 SW 6 9 1017.4 - 0.0 - - - - - - -
01/05:00am 12.9 WSW 7 9 1017.4 - 0.0 - - - - - - -
01/04:30am 13.0 SW 7 9 1017.3 - 0.0 - - - - - - -
01/04:00am 13.3 WSW 7 9 1017.5 - 0.0 - - - - - - -
01/03:30am 13.3 WSW 6 8 1017.3 - 0.0 - - - - - - -
01/03:00am 13.4 SW 7 9 1017.6 - 0.0 - - - - - - -
01/02:30am 13.8 WSW 7 10 1017.6 - 0.0 - - - - - - -
01/02:00am 14.0 WSW 7 9 1017.8 - 0.0 - - - - - - -
01/01:30am 13.8 WSW 7 9 1017.7 - 0.0 - - - - - - -
01/01:00am 13.7 SW 8 9 1017.9 - 0.0 - - - - - - -
01/12:30am 14.1 SW 7 8 1018.2 - 0.0 - - - - - - -
01/12:00am 14.7 SW 6 7 1018.2 - 0.0 - - - - - - -
 
Date/Time
EST
Temp

°C
Wind Pressure Rain
since 9am
mm
Weather Cloud Vis
km
Sea
Height
m
Swell
Dir
 
Speed
knots
Gust
knots
hPa Trend Height
m
Period
s
Dir
31/11:30pm 15.4 SW 5 6 1018.2 - 0.0 - - - - - - -
31/11:00pm 15.7 SW 5 6 1018.3 - 0.0 - - - - - - -
31/10:30pm 16.5 W 3 5 1018.4 - 0.0 - - - - - - -
31/10:00pm 16.2 WSW 6 6 1018.6 - 0.0 - - - - - - -
31/09:30pm 16.3 W 5 7 1018.5 - 0.0 - - - - - - -
31/09:00pm 16.9 W 4 5 1018.3 S 0.0 - - - - - - -
31/08:30pm 17.2 NW 3 5 1018.1 - 0.0 - - - - - - -
31/08:00pm 17.2 N 4 4 1017.7 - 0.0 - - - - - - -
31/07:30pm 17.2 N 3 5 1017.5 - 0.0 - - - - - - -
31/07:00pm 17.6 NNE 3 5 1017.1 - 0.0 - - - - - - -
31/06:30pm 18.0 NNE 4 6 1016.8 - 0.0 - - - - - - -
31/06:00pm 18.6 NNE 5 8 1016.4 R 0.0 - - - - - - -
31/05:30pm 19.6 NE 5 8 1016.1 - 0.0 - - - - - - -
31/05:00pm 21.0 NE 5 9 1015.9 - 0.0 - - 10 - - - -
31/04:30pm 21.2 NE 5 10 1015.7 - 0.0 - - 10 - - - -
31/04:00pm 21.3 ENE 6 10 1015.7 - 0.0 - - 10 - - - -
31/03:30pm 21.4 ENE 8 12 1015.6 - 0.0 - Mostly clear 10 - - - -
31/03:00pm 21.6 E 9 13 1015.6 F 0.0 Haze Mostly clear 25 - - - -
31/02:30pm 21.4 E 8 11 1016.1 - 0.0 - Mostly clear 10 - - - -
31/02:00pm 21.8 E 8 11 1016.5 - 0.0 - Mostly clear 10 - - - -
31/01:30pm 21.5 E 7 10 1016.9 - 0.0 - - - - - - -
31/01:00pm 21.6 ESE 6 9 1017.3 - 0.0 - Mostly clear 10 - - - -
31/12:30pm 21.2 E 6 9 1017.8 - 0.0 - Mostly clear 10 - - - -
31/12:00pm 21.2 ESE 5 9 1018.0 F 0.0 Haze Mostly clear 25 - - - -
31/11:30am 21.0 ESE 6 10 1018.4 - 0.0 - Mostly clear 10 - - - -
31/11:00am 21.4 SE 6 8 1018.8 - 0.0 - Mostly clear 10 - - - -
31/10:30am 21.3 SE 5 8 1019.0 - 0.0 - Mostly clear 10 - - - -
31/10:00am 21.4 SSE 5 7 1019.3 - 0.0 - Mostly clear 10 - - - -
31/09:30am 20.9 S 4 6 1019.4 - 0.0 - Mostly clear 10 - - - -
31/09:00am 19.5 S 5 6 1019.4 R 0.0 Haze Mostly clear 20 - - - -
31/08:30am 18.2 WSW 4 6 1019.2 - 0.0 - Mostly clear 10 - - - -
31/08:00am 16.3 SW 7 9 1019.0 - 0.0 - Mostly clear 10 - - - -
31/07:30am 14.6 SW 7 9 1018.8 - 0.0 - Mostly clear 10 - - - -
31/07:00am 13.2 WSW 7 10 1018.4 - 0.0 - Mostly clear 10 - - - -
31/06:30am 12.5 WSW 8 11 1018.0 - 0.0 - Mostly clear 10 - - - -
31/06:00am 12.2 SW 8 11 1017.5 S 0.0 Haze Mostly clear 20 - - - -
31/05:30am 12.7 SW 9 13 1017.3 - 0.0 - - - - - - -
31/05:00am 12.9 SW 8 11 1016.9 - 0.0 - - - - - - -
31/04:30am 13.1 WSW 8 10 1016.8 - 0.0 - - - - - - -
31/04:00am 13.1 WSW 8 10 1016.8 - 0.0 - - - - - - -
31/03:30am 13.6 WSW 7 10 1016.7 - 0.0 - - - - - - -
31/03:00am 13.1 WSW 8 10 1017.0 - 0.0 - - - - - - -
31/02:30am 13.1 SW 8 10 1017.2 - 0.0 - - - - - - -
31/02:00am 13.3 SW 8 10 1017.5 - 0.0 - - - - - - -
31/01:30am 13.8 SW 8 10 1017.7 - 0.0 - - - - - - -
31/01:00am 13.9 SW 8 9 1018.0 - 0.0 - - - - - - -
31/12:30am 14.5 SW 7 9 1018.1 - 0.0 - - - - - - -

Other Formats:

Comma delimited format used in spreadsheet applications
http://www.bom.gov.au/fwo/IDQ60701/IDQ60701.94367.axf

JavaScript Object Notation format (JSON) in row-major order
http://www.bom.gov.au/fwo/IDQ60701/IDQ60701.94367.json